AirNav   TITAN Aviation Fuels
 
 977 users online  

2MU9 Monroe Field Airport
Hawk Point, Missouri, USA

GOING TO HAWK POINT?


FAA INFORMATION EFFECTIVE 03 NOVEMBER 2022

Location

FAA Identifier: 2MU9
Lat/Long: 38-57-54.7600N 091-07-05.3000W
38-57.912667N 091-07.088333W
38.9652111,-91.1181389
(estimated)
Elevation: 725 ft. / 221 m (estimated)
From city: 1 mile E of HAWK POINT, MO
Time zone: UTC -6 (UTC -5 during Daylight Saving Time)
Zip code: 63349

Airport Operations

Airport use: Private use. Permission required prior to landing
Activation date: 03/2003
Control tower: no
ARTCC: KANSAS CITY CENTER
FSS: SAINT LOUIS FLIGHT SERVICE STATION
Attendance: UNATNDD
Wind indicator: no
Segmented circle: no

Nearby radio navigation aids

VOR radial/distance  VOR name  Freq  Var
FTZr332/17.6FORISTELL VORTAC110.8005E
STLr281/30.3ST LOUIS VORTAC117.4001E

Airport Services

Runway Information

Runway 16/34

Dimensions: 2300 x 50 ft. / 701 x 15 m
Surface: turf
RUNWAY 16  RUNWAY 34
Latitude: 38-58.095167N38-57.730167N
Longitude: 091-07.153500W091-07.023167W
Elevation: 725.0 ft.695.0 ft.
Traffic pattern: leftleft

Airport Ownership and Management from official FAA records

Ownership: Privately-owned
Owner: WILLIAM R. & BARBARA J. MONROE
P.O.BOX 192
HAWK POINT, MO 63349
Phone 314-406-5590
Manager: WILLIAM MONROE
P.O.BOX 192
HAWK POINT, MO 63349
Phone 314-406-5590

Airport Operational Statistics

Aircraft based on the field: 1
Single engine airplanes: 1
    

Additional Remarks

FOR CD CTC ST LOUIS APCH AT 314-890-1018.

Instrument Procedures

There are no published instrument procedures at 2MU9.

Some nearby airports with instrument procedures:

KFYG - Washington Regional Airport (23 nm S)
H19 - Bowling Green Municipal Airport (25 nm N)
KSUS - Spirit of St Louis Airport (28 nm SE)
1H0 - Creve Coeur Airport (32 nm SE)
KSET - St Charles County Smartt Airport (32 nm E)
 
Loc | Ops | Rwys | IFR | FBO | Links
Com | Nav | Svcs | Stats | Notes
Area around 2MU9 (Monroe Field Airport)
 
Road maps at: MapQuest Bing Google
 
Aerial photo
No photo
 
Sectional chart

 
Airport distance calculator
Flying to Monroe Field Airport? Find the distance to fly.

From to 2MU9

Sunrise and sunset
Times for 29-Nov-2022
 Local
(UTC-6)
 Zulu
(UTC)
Morning civil twilight06:3412:34
Sunrise07:0313:03
Sunset16:4222:42
Evening civil twilight17:1223:12

Current date and time
Zulu (UTC)  30-Nov-2022 01:59:05
Local (UTC-6)  29-Nov-2022 19:59:05
 
METAR
KFYG 
23nm S 
300155Z AUTO 29020G27KT 10SM FEW027 SCT033 SCT070 07/03 A2977 RMK AO2
KSUS 
29nm SE 
300154Z 29019G24KT 10SM FEW050 08/03 A2973 RMK AO2 PK WND 30028/0132 RAE39 PRESRR SLP067 P0000 T00830028
KSET 
32nm E 
300154Z AUTO 29022G28KT 10SM SCT049 OVC060 09/03 A2971 RMK AO2 PK WND 30038/0059 SLP059 T00890033
KMYJ 
35nm W 
300155Z AUTO 29023G30KT 10SM 00/M02 A2982 RMK AO2
KSTL 
37nm E 
300151Z 30016G27KT 10SM BKN046 BKN055 09/03 A2971 RMK AO2 PK WND 31035/0054 WSHFT 0040 RAB0056E05 SLP063 FROPA P0000 T00940028 $
KPPQ 
43nm N 
300135Z AUTO 29014G21KT 10SM OVC016 04/01 A2973 RMK AO2 T00370005
KUUV 
44nm S 
300155Z AUTO 28012G17KT 245V305 10SM SCT090 05/01 A2980 RMK AO2
TAF
KSUS 
29nm SE 
292057Z 2921/3018 19015G30KT P6SM SCT030 BKN045 FM292300 22013G24KT P6SM VCSH SCT025 BKN040 FM300200 29014G27KT P6SM BKN040 FM300400 30015G26KT P6SM SCT030
NOTAMs
Click for the latest NOTAMs
NOTAMs are issued by the DoD/FAA and will open in a separate window not controlled by AirNav.

 

 
 

Would you like to see your business listed on this page?

 If your business provides an interesting product or service to pilots, flight crews, aircraft, or users of the Monroe Field Airport, you should consider listing it here.  To start the listing process, click on the button below
 
Add a business
 

Other Pages about Monroe Field Airport

Update a link
 
Copyright © AirNav, LLC. All rights reserved. Privacy Policy  Contact